Data for 05/13/2010

Time Sea-Level Adjusted Pressure Absolute Pressure Temperature Relative Humidity Dew Point   
(mb) (inHg) (mb) (inHg) (C) (F) (%) (C) (F)
00:05 1021 30.15 850 25.1 3.3 38 75 -0.7 30.8
00:10 1021 30.15 850 25.1 3.4 38.1 74 -0.9 30.4
00:15 1021 30.15 850 25.1 3.4 38.1 75 -0.6 30.9
00:20 1021 30.15 850 25.1 3.3 37.9 76 -0.6 31
00:25 1021 30.15 850 25.1 3.2 37.8 76 -0.6 31
00:30 1021 30.15 850 25.1 3.1 37.6 77 -0.5 31.1
00:35 1021 30.15 850 25.1 3 37.4 78 -0.5 31.1
00:40 1021 30.15 850 25.1 3 37.3 78 -0.6 31
00:45 1021 30.15 850 25.1 2.9 37.2 78 -0.5 31.1
00:50 1021 30.15 850 25.1 2.8 37.1 78 -0.6 30.9
00:55 1021 30.15 850 25.1 2.8 37.1 79 -0.6 31
01:00 1021 30.15 850 25.1 2.8 37 78 -0.7 30.8
01:05 1021 30.15 850 25.1 2.8 37 79 -0.6 31
01:10 1021 30.15 850 25.1 2.7 36.8 79 -0.6 30.8
01:15 1021 30.15 850 25.1 2.6 36.7 79 -0.6 30.9
01:20 1021 30.15 850 25.1 2.5 36.6 80 -0.6 30.9
01:25 1021 30.15 850 25.1 2.5 36.5 80 -0.7 30.8
01:30 1021 30.15 850 25.1 2.4 36.3 81 -0.6 30.8
01:35 1021 30.15 850 25.1 2.3 36.1 81 -0.7 30.7
01:40 1021 30.15 850 25.1 2.2 36 81 -0.7 30.7
01:45 1021 30.15 850 25.1 2 35.5 82 -0.8 30.6
01:50 1021 30.15 850 25.1 1.8 35.3 83 -0.8 30.5
01:55 1021 30.15 850 25.1 1.8 35.3 82 -0.9 30.4
02:00 1021 30.15 850 25.1 1.7 35 84 -0.8 30.6
02:05 1021 30.15 850 25.1 1.5 34.7 84 -0.9 30.4
02:10 1021 30.15 850 25.1 1.5 34.7 84 -0.9 30.4
02:15 1021 30.15 850 25.1 1.4 34.6 84 -0.9 30.3
02:20 1020 30.12 850 25.1 1.4 34.5 84 -0.9 30.3
02:25 1020 30.12 850 25.1 1.4 34.6 83 -1.1 30
02:30 1020 30.12 850 25.1 1.5 34.6 82 -1.2 29.8
02:35 1020 30.12 850 25.1 1.5 34.6 82 -1.4 29.5
02:40 1020 30.12 850 25.1 1.4 34.6 82 -1.3 29.7
02:45 1020 30.12 849 25.07 1.4 34.6 82 -1.2 29.8
02:50 1020 30.12 849 25.07 1.3 34.3 83 -1.3 29.7
02:55 1020 30.12 849 25.07 1.2 34.1 84 -1.3 29.7
03:00 1020 30.12 849 25.07 1.1 33.9 83 -1.5 29.4
03:05 1020 30.12 849 25.07 1 33.9 83 -1.6 29.2
03:10 1020 30.12 849 25.07 1 33.8 84 -1.4 29.5
03:15 1020 30.12 849 25.07 1 33.7 84 -1.4 29.5
03:20 1020 30.12 849 25.07 1 33.9 84 -1.4 29.5
03:25 1020 30.12 849 25.07 1 33.9 83 -1.5 29.2
03:30 1020 30.12 849 25.07 1.2 34.1 82 -1.6 29.1
03:35 1020 30.12 849 25.07 1.2 34.1 81 -1.7 28.9
03:40 1020 30.12 849 25.07 1.2 34.1 80 -1.9 28.6
03:45 1020 30.12 849 25.07 1.1 34.1 81 -1.7 28.9
03:50 1020 30.12 849 25.07 1.1 34 80 -1.9 28.5
03:55 1020 30.12 849 25.07 1.2 34.1 80 -1.9 28.5
04:00 1020 30.12 849 25.07 1.1 34 81 -1.9 28.6
04:05 1020 30.12 849 25.07 1 33.8 81 -1.8 28.7
04:10 1020 30.12 849 25.07 0.9 33.7 80 -2.1 28.2
04:15 1020 30.12 849 25.07 1.1 33.9 77 -2.5 27.5
04:20 1020 30.12 849 25.07 1.1 34.1 74 -3 26.6
04:25 1020 30.12 849 25.07 1.1 34.1 75 -2.8 26.9
04:30 1020 30.12 849 25.07 1.1 33.9 74 -3 26.7
04:35 1020 30.12 849 25.07 0.8 33.4 79 -2.5 27.4
04:40 1020 30.12 849 25.07 1.1 34 75 -2.9 26.8
04:45 1020 30.12 849 25.07 1.2 34.1 73 -3.2 26.2
04:50 1020 30.12 849 25.07 1.1 34 75 -2.8 26.9
04:55 1020 30.12 849 25.07 1.2 34.1 73 -3.1 26.4
05:00 1020 30.12 849 25.07 0.8 33.5 76 -3 26.6
05:05 1020 30.12 849 25.07 0.6 33 77 -3 26.7
05:10 1020 30.12 849 25.07 0.6 33.1 76 -3.1 26.5
05:15 1020 30.12 849 25.07 0.6 33.1 75 -3.2 26.2
05:20 1020 30.12 849 25.07 0.7 33.2 74 -3.5 25.6
05:25 1020 30.12 849 25.07 0.8 33.5 73 -3.4 25.9
05:30 1020 30.12 849 25.07 0.8 33.5 76 -3 26.6
05:35 1020 30.12 849 25.07 0.7 33.2 78 -2.8 27
05:40 1020 30.12 849 25.07 0.6 33.1 79 -2.7 27.2
05:45 1020 30.12 849 25.07 0.5 32.8 80 -2.6 27.3
05:50 1020 30.12 849 25.07 0.2 32.3 81 -2.7 27.1
05:55 1020 30.12 849 25.07 0.1 32.2 82 -2.6 27.3
06:00 1020 30.12 849 25.07 -0 32 83 -2.6 27.2
06:05 1020 30.12 849 25.07 -0.2 31.7 82 -2.8 27
06:10 1020 30.12 849 25.07 -0.1 31.8 81 -3 26.5
06:15 1020 30.12 849 25.07 -0.1 31.8 81 -2.9 26.7
06:20 1020 30.12 849 25.07 0 32 81 -2.8 26.9
06:25 1020 30.12 849 25.07 0.2 32.4 81 -2.7 27.2
06:30 1020 30.12 849 25.07 0.4 32.7 80 -2.7 27.2
06:35 1020 30.12 849 25.07 0.5 32.8 78 -2.9 26.8
06:40 1020 30.12 849 25.07 0.6 33 78 -2.9 26.8
06:45 1020 30.12 849 25.07 0.7 33.3 77 -2.9 26.8
06:50 1020 30.12 849 25.07 0.8 33.4 76 -2.9 26.8
06:55 1020 30.12 849 25.07 0.8 33.5 77 -2.8 27
07:00 1020 30.12 849 25.07 1 33.8 77 -2.6 27.2
07:05 1020 30.12 849 25.07 1.1 34.1 77 -2.4 27.6
07:10 1020 30.12 849 25.07 1.4 34.4 76 -2.4 27.7
07:15 1020 30.12 849 25.07 1.7 35.1 74 -2.3 27.8
07:20 1020 30.12 849 25.07 1.9 35.5 73 -2.3 27.8
07:25 1020 30.12 849 25.07 2.1 35.7 73 -2.3 27.9
07:30 1020 30.12 850 25.1 2.4 36.3 72 -2.2 28.1
07:35 1020 30.12 850 25.1 3 37.3 69 -2.1 28.2
07:40 1020 30.12 850 25.1 3.1 37.6 69 -2 28.4
07:45 1020 30.12 850 25.1 3.4 38.1 67 -2.2 28
07:50 1020 30.12 850 25.1 3.3 37.9 68 -2.1 28.1
07:55 1020 30.12 850 25.1 3.6 38.4 66 -2.2 28.1
08:00 1021 30.15 850 25.1 3.7 38.7 67 -1.8 28.7
08:05 1021 30.15 850 25.1 4.3 39.7 63 -2.1 28.2
08:10 1021 30.15 850 25.1 4.9 40.9 64 -1.2 29.9
08:15 1021 30.15 850 25.1 5.5 41.9 60 -1.6 29.2
08:20 1021 30.15 850 25.1 5.6 42 59 -1.9 28.7
08:25 1021 30.15 850 25.1 6 42.9 56 -2 28.3
08:30 1021 30.15 850 25.1 6.4 43.5 56 -1.7 29
08:35 1021 30.15 850 25.1 6.1 43 59 -1.3 29.6
08:40 1021 30.15 850 25.1 6.2 43.1 52 -2.9 26.8
08:45 1021 30.15 850 25.1 5.9 42.7 53 -3 26.6
08:50 1021 30.15 850 25.1 5.7 42.2 53 -3.1 26.3
08:55 1021 30.15 850 25.1 6.6 43.8 50 -3 26.6
09:00 1021 30.15 850 25.1 6.8 44.2 51 -2.6 27.4
09:05 1021 30.15 850 25.1 6.8 44.3 50 -2.8 26.9
09:10 1021 30.15 850 25.1 7.3 45.1 50 -2.4 27.7
09:15 1021 30.15 850 25.1 7.4 45.4 48 -3 26.7
09:20 1021 30.15 850 25.1 7.6 45.7 48 -2.8 27
09:25 1021 30.15 850 25.1 7.5 45.5 49 -2.5 27.6
09:30 1021 30.15 850 25.1 7.4 45.3 49 -2.7 27.1
09:35 1021 30.15 850 25.1 7.1 44.7 51 -2.3 27.8
09:40 1021 30.15 850 25.1 7.6 45.7 48 -2.6 27.3
09:45 1021 30.15 850 25.1 8.6 47.4 47 -2 28.4
09:50 1020 30.12 850 25.1 8.1 46.7 46 -2.8 27
09:55 1021 30.15 850 25.1 8.5 47.2 45 -2.8 26.9
10:00 1021 30.15 850 25.1 8.1 46.5 48 -2.4 27.8
10:05 1021 30.15 850 25.1 8.6 47.6 45 -2.5 27.4
10:10 1021 30.15 850 25.1 9.3 48.8 46 -1.8 28.7
10:15 1020 30.12 850 25.1 9.2 48.6 45 -2.2 28.1
10:20 1020 30.12 850 25.1 9.3 48.7 44 -2.2 28
10:25 1020 30.12 850 25.1 9.7 49.4 42 -2.5 27.6
10:30 1020 30.12 850 25.1 9.9 49.8 43 -2 28.5
10:35 1020 30.12 850 25.1 10.3 50.6 40 -2.6 27.4
10:40 1020 30.12 850 25.1 10.9 51.6 42 -1.6 29.1
10:45 1020 30.12 850 25.1 10.5 50.8 40 -2.4 27.7
10:50 1020 30.12 850 25.1 11 51.8 39 -2.5 27.5
10:55 1020 30.12 849 25.07 11.7 53.1 37 -2.5 27.4
11:00 1020 30.12 849 25.07 10.7 51.3 41 -2 28.4
11:05 1020 30.12 849 25.07 10.4 50.7 37 -3.6 25.5
11:10 1020 30.12 849 25.07 10.5 50.8 40 -2.5 27.6
11:15 1020 30.12 849 25.07 11.2 52.1 38 -2.6 27.3
11:20 1020 30.12 849 25.07 12.2 54 32 -3.8 25.1
11:25 1020 30.12 849 25.07 12.6 54.7 32 -3.6 25.5
11:30 1020 30.12 849 25.07 11.9 53.5 33 -3.7 25.4
11:35 1020 30.12 849 25.07 11.9 53.3 32 -4.4 24.1
11:40 1020 30.12 849 25.07 11.4 52.4 36 -3.1 26.4
11:45 1020 30.12 849 25.07 11.7 53 30 -5.2 22.7
11:50 1020 30.12 849 25.07 11.9 53.5 30 -5.1 22.8
11:55 1020 30.12 849 25.07 12 53.5 28 -5.9 21.3
12:00 1020 30.12 849 25.07 11.8 53.3 30 -4.9 23.1
12:05 1020 30.12 849 25.07 11.7 53.1 28 -6.2 20.8
12:10 1020 30.12 849 25.07 12.2 53.9 27 -6 21.1
12:15 1020 30.12 849 25.07 12.4 54.2 29 -5 23.1
12:20 1020 30.12 849 25.07 12.6 54.7 27 -5.9 21.4
12:25 1020 30.12 849 25.07 12.8 55 28 -5 23
12:30 1020 30.12 849 25.07 13 55.3 25 -6.5 20.3
12:35 1020 30.12 849 25.07 12.7 54.9 27 -5.9 21.4
12:40 1020 30.12 849 25.07 12.7 54.8 27 -5.6 21.9
12:45 1020 30.12 849 25.07 12.1 53.9 27 -6.1 21
12:50 1019 30.09 849 25.07 12.7 54.9 26 -6 21.1
12:55 1019 30.09 849 25.07 13.1 55.6 24 -6.7 19.9
13:00 1019 30.09 849 25.07 13.2 55.8 24 -7 19.4
13:05 1019 30.09 849 25.07 13 55.4 25 -6.7 20
13:10 1019 30.09 849 25.07 13.5 56.2 23 -7.2 19.1
13:15 1019 30.09 848 25.04 14 57.3 23 -6.7 19.9
13:20 1019 30.09 848 25.04 13.7 56.6 25 -5.9 21.4
13:25 1019 30.09 848 25.04 12.6 54.7 26 -6.4 20.5
13:30 1019 30.09 848 25.04 12.8 55.1 25 -6.6 20.1
13:35 1019 30.09 848 25.04 13.3 55.9 23 -7.3 18.9
13:40 1019 30.09 848 25.04 13.8 56.8 22 -7.5 18.6
13:45 1019 30.09 848 25.04 13.8 56.8 21 -7.9 17.8
13:50 1019 30.09 848 25.04 13.7 56.6 23 -7 19.5
13:55 1019 30.09 848 25.04 13.1 55.6 25 -6.2 20.9
14:00 1019 30.09 848 25.04 13.4 56.1 24 -6.9 19.6
14:05 1019 30.09 848 25.04 13.5 56.2 22 -7.8 17.9
14:10 1019 30.09 848 25.04 14.2 57.6 22 -7.4 18.7
14:15 1019 30.09 848 25.04 14.5 58.1 23 -6.2 20.9
14:20 1019 30.09 848 25.04 14.8 58.6 22 -6.6 20.1
14:25 1019 30.09 848 25.04 15.3 59.5 21 -6.8 19.7
14:30 1019 30.09 848 25.04 15.1 59.1 22 -6.7 20
14:35 1019 30.09 848 25.04 15.1 59.1 21 -7 19.4
14:40 1019 30.09 848 25.04 14 57.3 22 -7.1 19.1
14:45 1019 30.09 848 25.04 13.4 56.1 23 -7.3 18.9
14:50 1019 30.09 848 25.04 14.6 58.2 18 -9.1 15.5
14:55 1019 30.09 848 25.04 14.7 58.4 20 -8.2 17.3
15:00 1019 30.09 848 25.04 15 58.9 20 -7.7 18.1
15:05 1019 30.09 848 25.04 15.3 59.5 18 -8.8 16.1
15:10 1019 30.09 848 25.04 15.6 60 19 -7.9 17.7
15:15 1019 30.09 848 25.04 15.8 60.4 16 -10 13.9
15:20 1019 30.09 848 25.04 15.1 59.2 18 -8.9 16
15:25 1019 30.09 848 25.04 15 59.1 19 -8.6 16.5
15:30 1019 30.09 848 25.04 15.4 59.7 16 -10 13.9
15:35 1019 30.09 848 25.04 15.7 60.2 15 -10.5 13.1
15:40 1019 30.09 848 25.04 15.1 59.1 16 -10.8 12.5
15:45 1019 30.09 848 25.04 15.1 59.2 17 -9.9 14.1
15:50 1019 30.09 848 25.04 15.2 59.3 17 -9.4 15.1
15:55 1019 30.09 848 25.04 14.9 58.8 17 -9.8 14.3
16:00 1019 30.09 848 25.04 15.7 60.2 18 -8.4 16.9
16:05 1019 30.09 848 25.04 15.5 59.9 18 -8.6 16.5
16:10 1019 30.09 848 25.04 15.5 59.9 18 -8.7 16.4
16:15 1019 30.09 848 25.04 15.8 60.5 17 -9.2 15.4
16:20 1019 30.09 848 25.04 16.1 61 17 -9.2 15.5
16:25 1019 30.09 848 25.04 15.8 60.4 17 -9.1 15.6
16:30 1019 30.09 848 25.04 15.1 59.2 19 -8.6 16.5
16:35 1019 30.09 848 25.04 14.4 58 19 -8.8 16.1
16:40 1019 30.09 848 25.04 14.9 58.7 19 -8.5 16.8
16:45 1019 30.09 848 25.04 15.9 60.6 18 -8.4 16.9
16:50 1019 30.09 848 25.04 15.1 59.1 20 -7.8 18
16:55 1019 30.09 848 25.04 14.9 58.9 20 -8 17.7
17:00 1019 30.09 848 25.04 15.8 60.4 19 -7.9 17.8
17:05 1019 30.09 848 25.04 15.8 60.5 18 -8.4 16.9
17:10 1019 30.09 848 25.04 15.7 60.2 19 -7.7 18.2
17:15 1019 30.09 848 25.04 15.8 60.5 20 -6.9 19.6
17:20 1019 30.09 848 25.04 15.6 60 18 -8.6 16.4
17:25 1019 30.09 848 25.04 15.7 60.3 20 -7.1 19.1
17:30 1019 30.09 848 25.04 14.7 58.5 21 -7.4 18.7
17:35 1018 30.06 848 25.04 14.1 57.4 21 -7.6 18.3
17:40 1018 30.06 847 25.01 14.2 57.5 22 -7.2 19
17:45 1018 30.06 848 25.04 13.8 56.8 21 -7.9 17.7
17:50 1018 30.06 848 25.04 13.4 56.1 22 -7.9 17.8
17:55 1019 30.09 848 25.04 13.3 56 22 -8 17.5
18:00 1018 30.06 848 25.04 13.3 55.9 22 -7.9 17.8
18:05 1019 30.09 848 25.04 13.6 56.5 22 -7.9 17.8
18:10 1019 30.09 848 25.04 13.9 56.9 22 -7.7 18.1
18:15 1018 30.06 848 25.04 13.4 56.2 22 -7.7 18.2
18:20 1018 30.06 848 25.04 13.2 55.7 23 -7.7 18.2
18:25 1018 30.06 848 25.04 13.5 56.3 22 -7.9 17.8
18:30 1018 30.06 848 25.04 13.7 56.7 22 -7.4 18.8
18:35 1018 30.06 848 25.04 13.9 57.1 22 -7.5 18.5
18:40 1018 30.06 848 25.04 13.4 56 22 -7.8 18
18:45 1018 30.06 848 25.04 13.6 56.4 22 -7.9 17.7
18:50 1018 30.06 848 25.04 13.8 56.9 23 -7 19.5
18:55 1018 30.06 848 25.04 13.5 56.2 24 -6.9 19.5
19:00 1018 30.06 848 25.04 13.4 56.1 23 -7.5 18.5
19:05 1018 30.06 848 25.04 13.4 56 24 -7 19.4
19:10 1018 30.06 848 25.04 13.3 56 23 -7.4 18.7
19:15 1018 30.06 848 25.04 13.2 55.8 23 -7.5 18.6
19:20 1018 30.06 848 25.04 13.2 55.7 24 -7.1 19.2
19:25 1018 30.06 848 25.04 13 55.4 24 -7.2 19
19:30 1018 30.06 848 25.04 13.1 55.6 23 -7.6 18.4
19:35 1018 30.06 848 25.04 13.1 55.5 23 -7.4 18.7
19:40 1018 30.06 848 25.04 13.1 55.6 24 -7 19.5
19:45 1018 30.06 848 25.04 13 55.5 23 -7.4 18.6
19:50 1018 30.06 848 25.04 13 55.4 24 -7.1 19.2
19:55 1019 30.09 848 25.04 13.1 55.5 23 -7.4 18.6
20:00 1019 30.09 848 25.04 13.1 55.6 23 -7.3 18.8
20:05 1019 30.09 848 25.04 13.1 55.5 25 -6.4 20.4
20:10 1019 30.09 848 25.04 13.1 55.5 24 -7.1 19.2
20:15 1019 30.09 848 25.04 13.1 55.5 24 -7.2 19.1
20:20 1019 30.09 848 25.04 13 55.3 24 -7.1 19.2
20:25 1019 30.09 848 25.04 12.8 55.1 25 -6.4 20.4
20:30 1019 30.09 848 25.04 12.6 54.7 25 -6.9 19.6
20:35 1019 30.09 848 25.04 12.5 54.4 26 -6.3 20.7
20:40 1019 30.09 848 25.04 12.2 54 25 -7.1 19.3
20:45 1019 30.09 848 25.04 12.4 54.2 25 -7 19.5
20:50 1019 30.09 848 25.04 12.3 54.2 27 -5.9 21.4
20:55 1019 30.09 848 25.04 11.8 53.3 30 -5 23
21:00 1019 30.09 848 25.04 11.1 52 33 -4.6 23.7
21:05 1019 30.09 848 25.04 10.5 50.9 35 -4.3 24.2
21:10 1019 30.09 848 25.04 10 50 35 -4.6 23.7
21:15 1019 30.09 848 25.04 9.8 49.6 37 -4.4 24.1
21:20 1019 30.09 848 25.04 9.5 49.1 39 -3.8 25.2
21:25 1019 30.09 848 25.04 9 48.2 41 -3.6 25.6
21:30 1019 30.09 848 25.04 8.6 47.6 42 -3.4 25.9
21:35 1019 30.09 848 25.04 8.3 46.9 44 -3.3 26
21:40 1019 30.09 849 25.07 8.1 46.5 43 -3.8 25.1
21:45 1019 30.09 849 25.07 8.1 46.6 42 -4.1 24.7
21:50 1019 30.09 849 25.07 8.1 46.7 41 -4.2 24.4
21:55 1019 30.09 849 25.07 8.2 46.7 41 -4.3 24.3
22:00 1019 30.09 849 25.07 7.9 46.3 43 -4 24.8
22:05 1020 30.12 849 25.07 7.6 45.7 43 -4.2 24.4
22:10 1020 30.12 849 25.07 7.6 45.7 43 -4.1 24.6
22:15 1020 30.12 849 25.07 7.4 45.2 44 -4.2 24.5
22:20 1020 30.12 849 25.07 7.1 44.8 44 -4.2 24.4
22:25 1020 30.12 849 25.07 6.9 44.5 45 -4.3 24.3
22:30 1020 30.12 849 25.07 6.9 44.4 44 -4.6 23.7
22:35 1020 30.12 849 25.07 6.9 44.4 44 -4.6 23.7
22:40 1020 30.12 849 25.07 6.8 44.3 44 -4.6 23.8
22:45 1020 30.12 849 25.07 6.6 44 44 -4.7 23.6
22:50 1020 30.12 849 25.07 6.5 43.8 45 -4.7 23.6
22:55 1020 30.12 849 25.07 6.5 43.8 44 -4.7 23.6
23:00 1020 30.12 849 25.07 6.3 43.4 46 -4.5 24
23:05 1020 30.12 849 25.07 6.1 43 46 -4.6 23.7
23:10 1020 30.12 849 25.07 6 42.8 47 -4.6 23.7
23:15 1020 30.12 849 25.07 6 42.8 47 -4.6 23.7
23:20 1020 30.12 849 25.07 6.1 42.9 45 -5 23
23:25 1020 30.12 849 25.07 6.2 43.1 45 -4.9 23.2
23:30 1020 30.12 849 25.07 6.1 42.9 45 -4.9 23.1
23:35 1020 30.12 849 25.07 6.2 43.1 44 -5 23
23:40 1020 30.12 849 25.07 6.1 43 45 -4.9 23.1
23:45 1020 30.12 849 25.07 5.8 42.4 47 -4.6 23.8
23:50 1020 30.12 849 25.07 5.5 41.8 48 -4.6 23.7
23:55 1020 30.12 849 25.07 5.5 41.9 48 -4.7 23.5
24:00 1020 30.12 849 25.07 5.6 42.1 48 -4.6 23.7